Data for 07/05/2010

Time Sea-Level Adjusted Pressure Absolute Pressure Temperature Relative Humidity Dew Point   
(mb) (inHg) (mb) (inHg) (C) (F) (%) (C) (F)
00:05 1016 30 845 24.95 11.6 52.9 75 7.3 45.2
00:10 1016 30 845 24.95 11.7 53 72 6.8 44.3
00:15 1016 30 845 24.95 11.8 53.2 73 7.1 44.7
00:20 1016 30 845 24.95 12 53.5 68 6.4 43.5
00:25 1016 30 845 24.95 12.1 53.8 70 6.7 44.1
00:30 1016 30 845 24.95 12.2 53.9 69 6.7 44.1
00:35 1016 30 845 24.95 12.2 54 67 6.4 43.5
00:40 1016 30 846 24.98 12.5 54.4 67 6.6 44
00:45 1017 30.03 846 24.98 12.5 54.5 69 7 44.6
00:50 1017 30.03 846 24.98 12.5 54.5 71 7.4 45.3
00:55 1017 30.03 846 24.98 12.2 54 70 6.9 44.4
01:00 1017 30.03 846 24.98 12.3 54.1 67 6.3 43.4
01:05 1017 30.03 846 24.98 12.4 54.4 65 6.1 43
01:10 1017 30.03 846 24.98 12.7 54.9 67 6.8 44.2
01:15 1017 30.03 846 24.98 12.6 54.7 71 7.6 45.6
01:20 1017 30.03 846 24.98 12.4 54.3 74 7.8 46.1
01:25 1017 30.03 846 24.98 12.2 53.9 73 7.5 45.5
01:30 1017 30.03 846 24.98 12.1 53.8 72 7.3 45.2
01:35 1017 30.03 846 24.98 12.1 53.9 73 7.4 45.3
01:40 1017 30.03 846 24.98 12.1 53.7 75 7.7 45.9
01:45 1017 30.03 846 24.98 11.9 53.4 74 7.4 45.3
01:50 1017 30.03 846 24.98 11.7 53.1 74 7.3 45.1
01:55 1017 30.03 846 24.98 11.5 52.7 72 6.7 44
02:00 1017 30.03 846 24.98 11.4 52.6 72 6.7 44
02:05 1017 30.03 846 24.98 11.3 52.4 70 6 42.9
02:10 1017 30.03 846 24.98 11.4 52.6 72 6.5 43.8
02:15 1017 30.03 846 24.98 11.5 52.6 72 6.7 44
02:20 1017 30.03 846 24.98 11.3 52.3 75 7 44.7
02:25 1017 30.03 846 24.98 11 51.8 72 6.2 43.1
02:30 1017 30.03 846 24.98 11.2 52.1 73 6.6 43.9
02:35 1017 30.03 846 24.98 11.1 52 75 6.8 44.2
02:40 1017 30.03 846 24.98 10.9 51.6 76 6.9 44.4
02:45 1017 30.03 847 25.01 10.8 51.4 77 7 44.6
02:50 1017 30.03 847 25.01 10.7 51.3 76 6.8 44.2
02:55 1017 30.03 846 24.98 10.7 51.3 76 6.6 43.8
03:00 1017 30.03 846 24.98 10.8 51.5 75 6.6 44
03:05 1017 30.03 846 24.98 10.9 51.6 73 6.3 43.4
03:10 1017 30.03 846 24.98 10.9 51.6 75 6.7 44.1
03:15 1017 30.03 847 25.01 10.9 51.6 74 6.5 43.6
03:20 1017 30.03 847 25.01 10.9 51.6 76 6.8 44.3
03:25 1017 30.03 846 24.98 10.8 51.5 74 6.5 43.7
03:30 1017 30.03 847 25.01 10.8 51.5 76 6.8 44.2
03:35 1017 30.03 847 25.01 10.7 51.3 74 6.3 43.3
03:40 1017 30.03 847 25.01 10.7 51.3 74 6.3 43.4
03:45 1017 30.03 846 24.98 10.7 51.3 70 5.6 42
03:50 1017 30.03 846 24.98 10.8 51.4 74 6.3 43.3
03:55 1017 30.03 847 25.01 10.6 51.1 73 6.1 43
04:00 1017 30.03 847 25.01 10.6 51.1 72 5.9 42.6
04:05 1017 30.03 847 25.01 10.5 51 74 6 42.9
04:10 1017 30.03 847 25.01 10.4 50.6 74 6 42.9
04:15 1017 30.03 847 25.01 10.3 50.6 76 6.3 43.4
04:20 1017 30.03 847 25.01 10 50 77 6.2 43.1
04:25 1017 30.03 847 25.01 9.9 49.8 78 6.3 43.4
04:30 1017 30.03 847 25.01 9.7 49.5 78 6.1 43
04:35 1017 30.03 847 25.01 9.7 49.5 77 5.9 42.6
04:40 1017 30.03 847 25.01 9.8 49.6 76 5.8 42.5
04:45 1017 30.03 847 25.01 9.8 49.7 75 5.6 42
04:50 1017 30.03 847 25.01 9.9 49.8 75 5.8 42.4
04:55 1017 30.03 847 25.01 9.9 49.8 75 5.7 42.3
05:00 1018 30.06 847 25.01 9.8 49.6 78 6.1 43
05:05 1018 30.06 847 25.01 9.6 49.3 76 5.7 42.3
05:10 1018 30.06 847 25.01 9.7 49.5 77 5.8 42.5
05:15 1018 30.06 847 25.01 9.7 49.4 75 5.5 41.9
05:20 1018 30.06 847 25.01 9.7 49.4 75 5.4 41.7
05:25 1018 30.06 847 25.01 9.7 49.4 74 5.4 41.7
05:30 1018 30.06 847 25.01 9.7 49.4 76 5.6 42.1
05:35 1018 30.06 847 25.01 9.6 49.4 76 5.6 42.1
05:40 1018 30.06 847 25.01 9.6 49.2 77 5.7 42.3
05:45 1018 30.06 847 25.01 9.3 48.8 78 5.7 42.2
05:50 1018 30.06 847 25.01 9.3 48.7 77 5.5 41.9
05:55 1018 30.06 847 25.01 9.3 48.8 76 5.4 41.7
06:00 1018 30.06 847 25.01 9.4 48.9 76 5.3 41.6
06:05 1018 30.06 847 25.01 9.4 48.8 76 5.4 41.7
06:10 1018 30.06 847 25.01 9.2 48.6 76 5.2 41.4
06:15 1018 30.06 847 25.01 9.4 48.9 76 5.5 41.8
06:20 1018 30.06 847 25.01 9.2 48.6 76 5.2 41.4
06:25 1018 30.06 847 25.01 9.2 48.6 76 5.2 41.4
06:30 1018 30.06 847 25.01 9.4 49 75 5.3 41.5
06:35 1018 30.06 847 25.01 9.6 49.3 75 5.3 41.6
06:40 1018 30.06 847 25.01 9.8 49.6 74 5.4 41.7
06:45 1018 30.06 847 25.01 9.9 49.7 74 5.5 41.8
06:50 1018 30.06 847 25.01 9.9 49.8 75 5.6 42.1
06:55 1018 30.06 847 25.01 9.9 49.8 74 5.4 41.8
07:00 1018 30.06 847 25.01 10 49.9 74 5.6 42.1
07:05 1018 30.06 847 25.01 10.1 50.1 74 5.7 42.2
07:10 1018 30.06 847 25.01 10.1 50.3 74 5.7 42.3
07:15 1018 30.06 847 25.01 10.3 50.5 72 5.5 41.8
07:20 1018 30.06 847 25.01 10.4 50.6 73 5.7 42.3
07:25 1018 30.06 847 25.01 10.3 50.6 74 5.9 42.6
07:30 1018 30.06 847 25.01 10.4 50.7 76 6.4 43.6
07:35 1018 30.06 847 25.01 10.2 50.4 78 6.5 43.7
07:40 1018 30.06 847 25.01 10.2 50.3 77 6.3 43.3
07:45 1018 30.06 847 25.01 10.4 50.7 76 6.3 43.4
07:50 1018 30.06 847 25.01 11.3 52.4 70 6 42.8
07:55 1018 30.06 847 25.01 11.4 52.5 72 6.5 43.8
08:00 1018 30.06 847 25.01 11.2 52.1 71 6 42.9
08:05 1018 30.06 847 25.01 11.7 53 72 6.7 44.1
08:10 1018 30.06 847 25.01 12 53.6 69 6.5 43.6
08:15 1018 30.06 847 25.01 12.1 53.7 69 6.7 44
08:20 1018 30.06 847 25.01 12.6 54.7 62 5.7 42.2
08:25 1018 30.06 847 25.01 13.3 55.9 56 4.7 40.5
08:30 1018 30.06 847 25.01 13.8 56.8 55 5 41.1
08:35 1018 30.06 847 25.01 14.2 57.6 51 4.2 39.6
08:40 1018 30.06 847 25.01 14.3 57.8 51 4.5 40
08:45 1018 30.06 847 25.01 14.3 57.7 53 4.8 40.7
08:50 1018 30.06 847 25.01 14.2 57.6 51 4.4 39.9
08:55 1018 30.06 847 25.01 14.4 57.8 51 4.3 39.7
09:00 1018 30.06 847 25.01 14.9 58.8 49 4.4 39.9
09:05 1018 30.06 847 25.01 14.7 58.5 46 3.2 37.7
09:10 1018 30.06 847 25.01 14.5 58 46 3 37.4
09:15 1018 30.06 847 25.01 14.9 58.7 47 3.7 38.6
09:20 1018 30.06 847 25.01 15.5 59.9 44 3.5 38.3
09:25 1017 30.03 847 25.01 15.8 60.4 45 4.1 39.4
09:30 1017 30.03 847 25.01 15.5 59.8 46 4.1 39.3
09:35 1017 30.03 847 25.01 15.1 59.2 48 4.2 39.6
09:40 1017 30.03 847 25.01 15.1 59.2 45 3.3 37.9
09:45 1017 30.03 847 25.01 15.7 60.2 43 3.4 38.1
09:50 1017 30.03 847 25.01 15.9 60.6 45 4.1 39.3
09:55 1017 30.03 847 25.01 16.5 61.8 42 3.5 38.3
10:00 1017 30.03 847 25.01 16.8 62.2 38 2.4 36.4
10:05 1017 30.03 847 25.01 16.3 61.3 41 3 37.3
10:10 1017 30.03 847 25.01 16.3 61.3 41 3.1 37.6
10:15 1017 30.03 846 24.98 16.6 61.9 38 2.3 36.2
10:20 1017 30.03 846 24.98 16.7 62 39 2.6 36.7
10:25 1017 30.03 846 24.98 16.6 61.8 40 3.1 37.6
10:30 1017 30.03 847 25.01 16.4 61.6 41 3.1 37.5
10:35 1017 30.03 846 24.98 16.4 61.6 39 2.5 36.6
10:40 1017 30.03 846 24.98 16.5 61.7 41 3.5 38.3
10:45 1017 30.03 846 24.98 16.6 61.8 41 3.3 38
10:50 1017 30.03 846 24.98 17.3 63.1 39 3.4 38.1
10:55 1017 30.03 846 24.98 17.2 63 41 3.9 39
11:00 1017 30.03 846 24.98 16.2 61.1 41 3.1 37.6
11:05 1017 30.03 846 24.98 16.5 61.6 40 3 37.5
11:10 1017 30.03 846 24.98 16.7 62 41 3.3 37.9
11:15 1017 30.03 846 24.98 17 62.5 39 3.1 37.6
11:20 1017 30.03 846 24.98 17 62.7 42 4 39.2
11:25 1017 30.03 846 24.98 17.3 63.1 41 3.9 39
11:30 1017 30.03 846 24.98 17 62.5 41 3.7 38.7
11:35 1017 30.03 846 24.98 17.9 64.3 38 3.5 38.3
11:40 1017 30.03 846 24.98 18.2 64.7 39 4.2 39.5
11:45 1017 30.03 846 24.98 17.4 63.4 38 3.1 37.5
11:50 1017 30.03 846 24.98 17.5 63.4 38 3 37.4
11:55 1017 30.03 846 24.98 17.1 62.8 40 3.4 38.1
12:00 1017 30.03 846 24.98 16.6 61.9 41 3.2 37.8
12:05 1017 30.03 846 24.98 16.9 62.4 39 3.1 37.5
12:10 1017 30.03 846 24.98 17.6 63.6 39 3.5 38.3
12:15 1017 30.03 846 24.98 17.7 63.8 38 3.4 38.2
12:20 1017 30.03 846 24.98 17.8 64 38 3.4 38.2
12:25 1017 30.03 846 24.98 17.2 63 42 4.2 39.5
12:30 1017 30.03 846 24.98 16.9 62.3 41 3.5 38.3
12:35 1017 30.03 846 24.98 17.4 63.2 37 2.7 36.8
12:40 1017 30.03 846 24.98 17.9 64.2 36 2.6 36.6
12:45 1017 30.03 846 24.98 18.2 64.7 37 3.3 38
12:50 1017 30.03 846 24.98 18.3 64.9 36 3 37.3
12:55 1017 30.03 846 24.98 18.8 65.8 35 3 37.5
13:00 1017 30.03 846 24.98 19 66.3 36 3.7 38.7
13:05 1017 30.03 846 24.98 18.4 65.2 37 3.6 38.5
13:10 1017 30.03 846 24.98 18.4 65.1 35 2.9 37.2
13:15 1017 30.03 846 24.98 19.1 66.3 36 3.7 38.6
13:20 1017 30.03 846 24.98 18.8 65.9 37 4.1 39.4
13:25 1017 30.03 846 24.98 19.1 66.5 34 3 37.4
13:30 1017 30.03 846 24.98 18.4 65.2 40 4.6 40.3
13:35 1017 30.03 846 24.98 17.4 63.4 42 4.6 40.2
13:40 1017 30.03 846 24.98 16.5 61.7 44 4.5 40
13:45 1017 30.03 846 24.98 16.8 62.2 41 3.5 38.3
13:50 1017 30.03 846 24.98 16.6 61.8 43 4.1 39.3
13:55 1017 30.03 846 24.98 17.5 63.4 38 3.1 37.6
14:00 1017 30.03 846 24.98 17.9 64.3 40 4.1 39.4
14:05 1017 30.03 846 24.98 17.8 64.1 37 3.2 37.8
14:10 1017 30.03 846 24.98 17.8 64 38 3.5 38.2
14:15 1017 30.03 846 24.98 17.8 64.1 36 2.8 37
14:20 1017 30.03 846 24.98 18.9 66 33 2.6 36.7
14:25 1017 30.03 846 24.98 19 66.2 33 2.3 36.2
14:30 1017 30.03 846 24.98 19.5 67.2 32 2.4 36.3
14:35 1016 30 846 24.98 19.4 66.9 32 2.3 36.1
14:40 1016 30 846 24.98 19.1 66.4 32 2.3 36.1
14:45 1016 30 846 24.98 19.1 66.3 32 2.1 35.8
14:50 1016 30 846 24.98 19.3 66.7 32 2.3 36.2
14:55 1016 30 846 24.98 19.2 66.6 31 1.9 35.5
15:00 1016 30 846 24.98 19.6 67.2 30 1.6 34.9
15:05 1016 30 846 24.98 19.3 66.7 30 1.6 34.9
15:10 1016 30 846 24.98 18.9 66.1 32 2.1 35.8
15:15 1016 30 846 24.98 18.7 65.7 32 1.9 35.4
15:20 1016 30 846 24.98 18.6 65.5 31 1.2 34.1
15:25 1016 30 846 24.98 19.3 66.8 29 1.1 34
15:30 1016 30 846 24.98 19.4 66.9 30 1.5 34.6
15:35 1016 30 846 24.98 19.4 66.8 29 0.9 33.6
15:40 1016 30 846 24.98 19.1 66.4 30 1.3 34.3
15:45 1016 30 846 24.98 18.8 65.9 30 0.9 33.5
15:50 1016 30 846 24.98 18.6 65.6 31 1.2 34.1
15:55 1017 30.03 846 24.98 18.1 64.5 32 1.4 34.5
16:00 1017 30.03 846 24.98 17.9 64.2 32 1.2 34.1
16:05 1017 30.03 846 24.98 18.1 64.5 31 1 33.8
16:10 1017 30.03 846 24.98 17.9 64.2 31 0.5 33
16:15 1017 30.03 846 24.98 17.9 64.2 31 0.5 32.9
16:20 1017 30.03 846 24.98 17.9 64.1 31 0.4 32.8
16:25 1017 30.03 846 24.98 17.7 63.9 31 0.6 33.1
16:30 1017 30.03 846 24.98 17.8 64 31 0.6 33.1
16:35 1017 30.03 846 24.98 17.6 63.6 32 0.9 33.6
16:40 1017 30.03 846 24.98 17.3 63.1 33 1.1 33.9
16:45 1017 30.03 846 24.98 17.3 63.2 32 0.7 33.2
16:50 1017 30.03 846 24.98 17.3 63.1 32 0.6 33.1
16:55 1017 30.03 846 24.98 17.3 63.1 34 1.3 34.4
17:00 1017 30.03 846 24.98 16.9 62.4 34 1.1 34
17:05 1017 30.03 846 24.98 16.8 62.3 34 1.2 34.1
17:10 1017 30.03 846 24.98 16.8 62.2 34 0.8 33.4
17:15 1017 30.03 846 24.98 16.7 62 35 1.3 34.3
17:20 1017 30.03 846 24.98 16.6 61.9 35 1.4 34.4
17:25 1017 30.03 846 24.98 16.7 62 35 1.4 34.6
17:30 1017 30.03 847 25.01 16.5 61.7 34 0.9 33.6
17:35 1017 30.03 847 25.01 16.6 62 34 0.6 33.2
17:40 1017 30.03 847 25.01 16.8 62.2 33 0.4 32.7
17:45 1017 30.03 847 25.01 16.8 62.2 33 0.6 33.1
17:50 1018 30.06 847 25.01 16.8 62.3 32 0.4 32.7
17:55 1018 30.06 847 25.01 16.8 62.3 33 0.5 33
18:00 1018 30.06 847 25.01 16.6 61.9 36 1.8 35.2
18:05 1018 30.06 847 25.01 16.5 61.6 37 1.8 35.3
18:10 1018 30.06 847 25.01 16.1 61 35 0.9 33.5
18:15 1018 30.06 847 25.01 15.4 59.7 37 0.9 33.6
18:20 1018 30.06 847 25.01 14.9 58.8 38 0.9 33.6
18:25 1018 30.06 847 25.01 14.7 58.5 41 1.8 35.2
18:30 1018 30.06 847 25.01 14.6 58.3 40 1.1 34
18:35 1018 30.06 847 25.01 14.7 58.5 41 1.6 34.9
18:40 1018 30.06 847 25.01 14.9 58.8 42 2.3 36.1
18:45 1018 30.06 847 25.01 14.6 58.3 43 2.3 36.1
18:50 1018 30.06 848 25.04 14.5 58.2 43 2.3 36.1
18:55 1018 30.06 848 25.04 14.4 57.9 44 2.5 36.5
19:00 1019 30.09 848 25.04 14.1 57.4 44 2.2 36
19:05 1019 30.09 848 25.04 13.9 57 48 3.2 37.8
19:10 1019 30.09 848 25.04 13.9 57 47 2.7 36.9
19:15 1019 30.09 848 25.04 13.3 56 56 4.7 40.4
19:20 1019 30.09 848 25.04 12.6 54.7 58 4.6 40.3
19:25 1019 30.09 848 25.04 12.3 54.1 60 4.8 40.6
19:30 1019 30.09 848 25.04 12.1 53.8 54 3.1 37.5
19:35 1019 30.09 848 25.04 12.4 54.3 55 3.7 38.7
19:40 1019 30.09 848 25.04 12.1 53.7 60 4.7 40.4
19:45 1019 30.09 848 25.04 11.6 53 58 3.7 38.6
19:50 1019 30.09 848 25.04 11.6 52.9 61 4.5 40
19:55 1019 30.09 848 25.04 11.2 52.2 64 4.6 40.3
20:00 1019 30.09 848 25.04 11.1 52 63 4.4 39.9
20:05 1019 30.09 848 25.04 11 51.8 65 4.8 40.6
20:10 1019 30.09 849 25.07 10.9 51.5 64 4.4 40
20:15 1019 30.09 849 25.07 10.9 51.5 65 4.5 40.1
20:20 1019 30.09 849 25.07 10.9 51.5 56 2.5 36.5
20:25 1019 30.09 849 25.07 11.1 51.9 58 3.1 37.5
20:30 1019 30.09 848 25.04 10.7 51.3 68 5.2 41.3
20:35 1019 30.09 848 25.04 10.3 50.5 71 5.2 41.4
20:40 1019 30.09 848 25.04 10.2 50.4 68 4.7 40.4
20:45 1019 30.09 848 25.04 10.2 50.3 66 4.2 39.6
20:50 1019 30.09 848 25.04 10.2 50.4 62 3.3 37.9
20:55 1019 30.09 848 25.04 10.2 50.4 66 4.3 39.7
21:00 1019 30.09 848 25.04 10 50 67 4.1 39.4
21:05 1019 30.09 848 25.04 9.8 49.7 66 3.8 38.9
21:10 1019 30.09 848 25.04 9.8 49.6 66 3.7 38.7
21:15 1019 30.09 848 25.04 9.7 49.4 64 3.2 37.7
21:20 1019 30.09 848 25.04 9.8 49.6 63 3.1 37.5
21:25 1019 30.09 848 25.04 10 49.9 63 3.3 38
21:30 1019 30.09 848 25.04 10 50 62 3.2 37.7
21:35 1019 30.09 849 25.07 10 50 64 3.5 38.4
21:40 1019 30.09 849 25.07 9.8 49.6 67 3.9 38.9
21:45 1020 30.12 849 25.07 9.5 49.2 67 3.6 38.6
21:50 1020 30.12 849 25.07 9.5 49.2 65 3.2 37.8
21:55 1020 30.12 849 25.07 9.8 49.6 62 2.9 37.3
22:00 1020 30.12 849 25.07 9.9 49.8 65 3.6 38.4
22:05 1020 30.12 849 25.07 9.7 49.4 67 4 39.1
22:10 1020 30.12 849 25.07 9.6 49.2 67 3.7 38.7
22:15 1020 30.12 849 25.07 9.5 49.1 66 3.5 38.3
22:20 1020 30.12 849 25.07 9.6 49.3 65 3.5 38.3
22:25 1020 30.12 849 25.07 9.6 49.3 67 3.7 38.7
22:30 1020 30.12 850 25.1 9.6 49.3 67 3.8 38.9
22:35 1020 30.12 850 25.1 9.5 49.1 68 3.9 39
22:40 1021 30.15 850 25.1 9.5 49 67 3.7 38.7
22:45 1021 30.15 850 25.1 9.4 49 68 3.8 38.8
22:50 1021 30.15 850 25.1 9.4 48.9 68 3.9 39.1
22:55 1021 30.15 850 25.1 9.3 48.8 68 3.8 38.9
23:00 1021 30.15 850 25.1 9.3 48.8 69 4 39.1
23:05 1021 30.15 850 25.1 9.4 48.9 69 4 39.2
23:10 1021 30.15 850 25.1 9.4 48.9 68 3.7 38.7
23:15 1021 30.15 850 25.1 9.4 48.8 70 4.1 39.4
23:20 1021 30.15 850 25.1 9.2 48.6 70 4.1 39.4
23:25 1021 30.15 850 25.1 9.1 48.4 72 4.3 39.7
23:30 1021 30.15 850 25.1 9 48.3 72 4.4 39.9
23:35 1021 30.15 850 25.1 8.9 48 74 4.5 40
23:40 1021 30.15 850 25.1 8.9 48 74 4.5 40.1
23:45 1021 30.15 850 25.1 8.9 48 75 4.6 40.4
23:50 1021 30.15 850 25.1 9 48.1 71 4 39.2
23:55 1021 30.15 850 25.1 9.1 48.3 75 4.8 40.7
24:00 1021 30.15 850 25.1 8.8 47.9 73 4.3 39.8